Time;durP1;ratioP1;P1;durP2;ratioP2;P2;SDS_P1;SDS_P2;PMS_P1;PMS_P2;Temp;Humidity;BMP_temperature;BMP_pressure;BME280_temperature;BME280_humidity;BME280_pressure;Samples;Min_cycle;Max_cycle;Signal;HPM_P1;HPM_P2
2023/09/02 00:01:49;;;;;;;2.83;2.17;;;;;;;21.31;55.63;100313.00;6343927;28;20142;-73
2023/09/02 00:04:50;;;;;;;2.90;2.20;;;;;;;21.24;55.63;100307.50;6347196;28;20456;-74
2023/09/02 00:07:53;;;;;;;3.63;2.22;;;;;;;21.26;55.87;100316.13;6349150;28;20039;-73
2023/09/02 00:10:53;;;;;;;3.88;2.58;;;;;;;21.34;55.34;100310.06;6329629;28;20479;-72
2023/09/02 00:13:57;;;;;;;4.27;2.40;;;;;;;21.16;55.44;100318.06;6333897;28;20050;-73
2023/09/02 00:17:00;;;;;;;3.22;2.40;;;;;;;21.32;54.67;100320.00;6345463;28;20411;-73
2023/09/02 00:20:04;;;;;;;3.22;2.20;;;;;;;21.40;54.97;100316.56;6338061;28;20054;-73
2023/09/02 00:23:05;;;;;;;2.92;2.22;;;;;;;21.50;54.38;100318.13;6346555;28;20065;-73
2023/09/02 00:26:09;;;;;;;4.77;2.57;;;;;;;21.40;54.60;100314.72;6345962;28;20478;-73
2023/09/02 00:29:09;;;;;;;3.58;2.58;;;;;;;21.38;54.78;100315.88;6347534;27;20411;-73
2023/09/02 00:32:12;;;;;;;3.73;2.33;;;;;;;21.42;54.71;100314.59;6344170;28;20047;-73
2023/09/02 00:35:13;;;;;;;2.58;2.22;;;;;;;21.34;55.43;100318.00;6345982;28;20043;-73
2023/09/02 00:38:16;;;;;;;3.97;2.50;;;;;;;21.27;55.32;100312.50;6347210;28;20047;-73
2023/09/02 00:41:29;;;;;;;3.80;2.35;;;;;;;21.16;55.92;100320.72;6347303;28;20055;-73
2023/09/02 00:44:30;;;;;;;4.10;2.42;;;;;;;21.19;56.12;100316.91;6345913;28;20048;-73
2023/09/02 00:47:31;;;;;;;3.67;2.70;;;;;;;21.18;55.99;100323.22;6344919;28;20140;-73
2023/09/02 00:50:35;;;;;;;4.10;3.00;;;;;;;21.19;55.54;100323.06;6344800;28;20050;-73
2023/09/02 00:53:35;;;;;;;4.57;2.75;;;;;;;20.98;56.21;100315.47;6347106;28;20491;-73
2023/09/02 00:56:39;;;;;;;3.83;2.35;;;;;;;20.97;56.02;100308.47;6348092;28;20047;-73
2023/09/02 00:59:40;;;;;;;4.78;2.47;;;;;;;20.92;56.12;100316.91;6343684;28;20383;-73
2023/09/02 01:02:44;;;;;;;4.00;2.58;;;;;;;20.87;56.12;100316.53;6347665;28;20138;-73
2023/09/02 01:05:45;;;;;;;6.05;2.58;;;;;;;20.95;56.07;100318.41;6347790;28;20047;-73
2023/09/02 01:08:46;;;;;;;4.22;2.63;;;;;;;20.82;56.59;100318.00;6335806;28;20071;-73
2023/09/02 01:11:48;;;;;;;6.03;2.95;;;;;;;20.61;57.24;100320.94;6336335;28;20056;-73
2023/09/02 01:14:48;;;;;;;3.78;2.47;;;;;;;20.67;57.15;100315.88;6345993;28;20055;-73
2023/09/02 01:17:49;;;;;;;6.75;2.95;;;;;;;20.72;56.32;100324.19;6347290;28;20051;-73
2023/09/02 01:21:19;;;;;;;4.28;2.60;;;;;;;20.79;56.85;100326.25;6346518;28;20104;-73
2023/09/02 01:24:23;;;;;;;5.53;2.38;;;;;;;20.80;56.51;100320.78;6343549;28;20062;-73
2023/09/02 01:27:47;;;;;;;3.25;2.60;;;;;;;20.82;56.54;100323.31;6345863;28;20058;-73
2023/09/02 01:30:50;;;;;;;5.90;3.30;;;;;;;20.82;57.12;100313.53;6336587;28;20410;-73
2023/09/02 01:33:53;;;;;;;4.68;2.70;;;;;;;20.87;57.25;100324.47;6337452;28;20040;-73
2023/09/02 01:36:54;;;;;;;5.05;2.50;;;;;;;20.81;57.08;100318.97;6345925;28;20418;-72
2023/09/02 01:39:57;;;;;;;3.63;2.75;;;;;;;20.64;57.67;100310.06;6345999;28;20062;-72
2023/09/02 01:43:01;;;;;;;5.00;2.35;;;;;;;20.68;57.36;100314.06;6334015;28;20093;-72
2023/09/02 01:46:02;;;;;;;6.68;2.60;;;;;;;20.57;57.97;100315.09;6343644;28;20047;-73
2023/09/02 01:49:04;;;;;;;2.83;2.35;;;;;;;20.52;57.80;100317.38;6344822;28;20055;-73
2023/09/02 01:52:05;;;;;;;3.28;2.47;;;;;;;20.60;57.86;100317.47;6340475;28;20056;-73
2023/09/02 01:55:06;;;;;;;3.22;2.33;;;;;;;20.47;58.53;100315.19;6344131;28;20093;-73
2023/09/02 01:58:07;;;;;;;5.20;2.83;;;;;;;20.54;57.91;100321.53;6335099;28;20134;-73
2023/09/02 02:01:08;;;;;;;3.77;2.50;;;;;;;20.58;57.98;100327.38;6325662;28;20310;-73
2023/09/02 02:04:22;;;;;;;3.42;2.22;;;;;;;20.53;58.56;100330.47;6345257;28;20043;-73
2023/09/02 02:07:28;;;;;;;3.28;2.50;;;;;;;20.41;58.50;100315.78;6343922;28;20081;-73
2023/09/02 02:10:30;;;;;;;3.53;2.72;;;;;;;20.44;58.47;100310.16;6334421;28;20128;-73
2023/09/02 02:13:33;;;;;;;5.43;2.38;;;;;;;20.39;58.33;100312.44;6319877;28;20433;-73
2023/09/02 02:16:36;;;;;;;5.50;2.45;;;;;;;20.37;58.46;100317.06;6343762;28;20108;-73
2023/09/02 02:19:44;;;;;;;3.78;2.47;;;;;;;20.38;58.38;100317.88;6342425;28;20485;-72
2023/09/02 02:22:44;;;;;;;3.20;2.10;;;;;;;20.38;58.40;100317.88;6344809;28;20138;-72
2023/09/02 02:25:45;;;;;;;3.80;2.78;;;;;;;20.33;58.80;100318.34;6345887;28;20064;-72
2023/09/02 02:28:47;;;;;;;3.92;2.22;;;;;;;20.32;58.69;100314.00;6346116;28;20118;-73
2023/09/02 02:31:48;;;;;;;4.30;2.30;;;;;;;20.33;58.69;100315.69;6338931;28;20051;-73
2023/09/02 02:34:53;;;;;;;3.90;2.78;;;;;;;20.31;59.04;100307.91;6341068;28;20050;-74
2023/09/02 02:37:55;;;;;;;5.32;2.60;;;;;;;20.34;58.91;100320.00;6345778;28;20074;-74
2023/09/02 02:40:56;;;;;;;;;;;;;;;20.27;59.78;100317.13;6344081;28;20500;-75
2023/09/02 02:43:59;;;;;;;4.18;2.30;;;;;;;20.28;59.77;100318.81;6344354;28;19923;-74
2023/09/02 02:46:59;;;;;;;6.03;2.50;;;;;;;20.13;59.42;100318.47;6341562;28;20154;-74
2023/09/02 02:50:00;;;;;;;4.45;2.40;;;;;;;20.24;59.33;100311.28;6325971;28;20070;-74
2023/09/02 02:53:05;;;;;;;3.78;2.35;;;;;;;20.18;59.48;100319.81;6346341;27;20048;-74
2023/09/02 02:56:06;;;;;;;4.68;2.50;;;;;;;20.13;60.06;100312.34;6344832;28;20055;-74
2023/09/02 02:59:07;;;;;;;2.97;2.30;;;;;;;20.16;60.23;100301.47;6341882;28;20043;-74
2023/09/02 03:02:07;;;;;;;7.70;2.70;;;;;;;20.21;60.28;100316.91;6346650;28;20138;-74
2023/09/02 03:05:10;;;;;;;4.93;2.70;;;;;;;20.06;60.34;100305.97;6349207;28;20044;-74
2023/09/02 03:08:11;;;;;;;3.83;2.33;;;;;;;20.01;60.76;100310.88;6348988;28;20051;-74
2023/09/02 03:11:12;;;;;;;4.13;2.35;;;;;;;20.09;60.27;100311.78;6332834;28;20122;-74
2023/09/02 03:14:13;;;;;;;6.57;2.65;;;;;;;20.07;60.19;100313.75;6343917;28;20051;-74
2023/09/02 03:17:20;;;;;;;3.50;2.47;;;;;;;20.13;59.79;100302.56;6343968;28;20138;-74
2023/09/02 03:20:26;;;;;;;3.67;2.60;;;;;;;20.05;60.64;100306.94;6346014;28;20079;-74
2023/09/02 03:23:27;;;;;;;4.10;2.55;;;;;;;20.09;60.55;100305.66;6349701;28;20046;-75
2023/09/02 03:26:27;;;;;;;4.60;2.65;;;;;;;20.05;60.85;100312.25;6349459;28;20048;-75
2023/09/02 03:29:28;;;;;;;4.30;2.83;;;;;;;20.01;60.50;100303.75;6350421;28;20048;-74
2023/09/02 03:32:30;;;;;;;5.20;3.08;;;;;;;19.95;60.79;100307.00;6348578;28;20047;-73
2023/09/02 03:35:38;;;;;;;3.65;2.50;;;;;;;19.94;60.39;100310.63;6348826;28;20047;-73
2023/09/02 03:38:39;;;;;;;3.45;2.30;;;;;;;19.90;61.04;100301.31;6342327;28;20047;-73
2023/09/02 03:41:40;;;;;;;3.95;2.78;;;;;;;19.90;61.06;100303.97;6344051;28;20100;-73
2023/09/02 03:44:41;;;;;;;3.90;2.57;;;;;;;19.88;61.24;100301.47;6348705;28;20100;-73
2023/09/02 03:47:41;;;;;;;4.82;2.70;;;;;;;19.83;61.33;100302.88;6346258;28;20043;-74
2023/09/02 03:51:00;;;;;;;4.18;2.85;;;;;;;19.78;61.51;100303.34;6348511;28;20139;-74
2023/09/02 03:54:04;;;;;;;6.22;2.83;;;;;;;19.73;61.94;100310.91;6347126;28;20184;-74
2023/09/02 03:57:05;;;;;;;3.28;2.63;;;;;;;19.72;61.76;100309.22;6349428;28;20152;-75
2023/09/02 04:00:07;;;;;;;3.88;2.55;;;;;;;19.69;61.87;100307.66;6344276;28;20058;-74
2023/09/02 04:03:12;;;;;;;4.90;2.50;;;;;;;19.56;61.92;100312.47;6347139;28;20056;-74
2023/09/02 04:06:13;;;;;;;7.78;2.83;;;;;;;19.56;62.55;100309.84;6342994;27;20052;-75
2023/09/02 04:09:16;;;;;;;3.03;2.33;;;;;;;19.65;61.82;100316.88;6329521;28;20490;-74
2023/09/02 04:12:19;;;;;;;4.82;3.03;;;;;;;19.60;61.96;100321.78;6341171;28;20054;-75
2023/09/02 04:15:20;;;;;;;4.47;2.55;;;;;;;19.57;61.92;100329.19;6347124;28;20055;-74
2023/09/02 04:18:21;;;;;;;4.43;2.60;;;;;;;19.59;62.53;100327.22;6334600;28;20104;-73
2023/09/02 04:21:22;;;;;;;4.20;2.73;;;;;;;19.51;62.56;100334.06;6340308;28;20049;-74
2023/09/02 04:24:23;;;;;;;4.65;2.63;;;;;;;19.45;62.57;100347.03;6344430;28;20040;-74
2023/09/02 04:27:23;;;;;;;3.72;2.35;;;;;;;19.44;62.47;100345.38;6347818;28;20047;-73
2023/09/02 04:30:27;;;;;;;5.97;2.90;;;;;;;19.67;62.24;100349.34;6344063;28;20043;-74
2023/09/02 04:33:28;;;;;;;3.85;2.40;;;;;;;19.81;62.43;100348.06;6363307;27;20039;-75
2023/09/02 04:36:29;;;;;;;4.05;2.53;;;;;;;19.66;62.53;100345.03;6347499;28;20188;-73
2023/09/02 04:39:30;;;;;;;4.03;2.60;;;;;;;19.68;63.01;100342.22;6345842;28;20139;-73
2023/09/02 04:42:30;;;;;;;6.25;2.45;;;;;;;19.71;62.36;100349.91;6345652;28;20333;-74
2023/09/02 04:45:35;;;;;;;3.90;2.55;;;;;;;19.61;62.61;100351.72;6338761;28;20446;-75
2023/09/02 04:48:36;;;;;;;4.55;2.50;;;;;;;19.80;62.76;100348.19;6345268;28;20089;-74
2023/09/02 04:51:37;;;;;;;5.15;2.55;;;;;;;20.00;61.82;100356.91;6345484;28;20419;-75
2023/09/02 04:54:38;;;;;;;5.45;2.72;;;;;;;19.90;61.54;100356.94;6325218;28;20041;-74
2023/09/02 04:57:41;;;;;;;3.47;2.20;;;;;;;19.91;61.37;100355.94;6348089;28;20100;-75
2023/09/02 05:00:44;;;;;;;3.70;2.40;;;;;;;19.97;61.71;100365.13;6345069;28;20077;-74
2023/09/02 05:03:47;;;;;;;3.88;2.45;;;;;;;20.06;61.70;100357.13;6341071;28;20067;-74
2023/09/02 05:06:48;;;;;;;6.82;2.38;;;;;;;19.96;62.01;100359.00;6335598;28;20040;-74
2023/09/02 05:09:50;;;;;;;3.33;2.28;;;;;;;20.26;61.46;100357.88;6346517;28;20089;-74
2023/09/02 05:12:51;;;;;;;3.88;2.50;;;;;;;20.37;60.41;100353.34;6343131;28;20055;-75
2023/09/02 05:15:51;;;;;;;3.65;2.38;;;;;;;20.20;60.83;100358.47;6346588;28;20056;-75
2023/09/02 05:18:52;;;;;;;4.85;2.22;;;;;;;20.32;60.47;100353.75;6346147;28;20058;-74
2023/09/02 05:21:53;;;;;;;5.15;2.70;;;;;;;20.22;60.59;100364.44;6345136;28;20413;-75
2023/09/02 05:24:53;;;;;;;3.10;2.13;;;;;;;20.09;60.68;100356.81;6331133;28;20075;-75
2023/09/02 05:27:56;;;;;;;2.58;1.98;;;;;;;20.05;60.90;100367.88;6345913;28;20050;-74
2023/09/02 05:30:57;;;;;;;3.20;2.00;;;;;;;20.27;60.78;100366.63;6347628;28;20048;-75
2023/09/02 05:33:58;;;;;;;4.18;2.13;;;;;;;20.28;61.13;100361.19;6342425;28;20055;-75
2023/09/02 05:36:59;;;;;;;2.75;2.28;;;;;;;20.32;61.03;100367.88;6338350;28;20056;-74
2023/09/02 05:40:00;;;;;;;5.07;2.42;;;;;;;20.41;60.90;100365.31;6342963;28;20050;-75
2023/09/02 05:43:01;;;;;;;4.10;2.80;;;;;;;20.21;61.21;100365.41;6345107;28;20486;-73
2023/09/02 05:46:04;;;;;;;3.20;2.35;;;;;;;20.66;60.62;100372.53;6345677;28;20414;-73
2023/09/02 05:49:07;;;;;;;5.80;2.88;;;;;;;20.60;61.03;100373.13;6340045;28;20826;-73
2023/09/02 05:52:08;;;;;;;3.30;2.15;;;;;;;20.60;61.25;100361.72;6342201;28;20077;-73
2023/09/02 05:55:08;;;;;;;3.58;2.40;;;;;;;21.02;60.12;100384.94;6340369;28;20039;-73
2023/09/02 05:58:09;;;;;;;4.38;2.78;;;;;;;21.09;60.04;100381.53;6344629;28;20044;-73
2023/09/02 06:01:12;;;;;;;3.70;2.38;;;;;;;21.33;59.06;100380.03;6335053;28;20055;-73
2023/09/02 06:04:13;;;;;;;3.20;2.28;;;;;;;21.50;59.12;100379.19;6344666;28;20483;-73
2023/09/02 06:07:14;;;;;;;4.05;2.10;;;;;;;21.65;58.48;100374.13;6345896;28;20044;-73
2023/09/02 06:10:15;;;;;;;3.90;2.47;;;;;;;22.17;56.86;100370.53;6346292;28;20055;-73
2023/09/02 06:13:15;;;;;;;4.68;2.60;;;;;;;22.23;56.58;100374.38;6344403;28;20048;-73
2023/09/02 06:16:16;;;;;;;3.42;2.42;;;;;;;22.70;55.47;100379.97;6343925;28;20047;-73
2023/09/02 06:19:17;;;;;;;3.92;2.30;;;;;;;22.62;55.28;100374.66;6345642;28;20122;-73
2023/09/02 06:22:17;;;;;;;5.13;2.63;;;;;;;22.98;55.57;100382.34;6345898;28;20482;-73
2023/09/02 06:25:18;;;;;;;2.83;2.03;;;;;;;23.44;53.53;100385.31;6338070;28;20483;-73
2023/09/02 06:28:19;;;;;;;2.95;2.25;;;;;;;23.31;52.56;100380.50;6332285;28;20047;-74
2023/09/02 06:31:19;;;;;;;2.90;2.00;;;;;;;23.58;53.07;100386.47;6344327;28;20135;-74
2023/09/02 06:34:22;;;;;;;3.90;2.30;;;;;;;23.19;53.63;100383.69;6343523;28;20039;-74
2023/09/02 06:37:23;;;;;;;3.67;2.15;;;;;;;23.39;52.91;100393.00;6336365;28;20514;-74
2023/09/02 06:40:24;;;;;;;2.53;1.70;;;;;;;23.73;53.30;100397.22;6342146;28;21035;-74
2023/09/02 06:43:27;;;;;;;3.87;2.30;;;;;;;23.60;51.91;100394.28;6346492;28;20043;-74
2023/09/02 06:46:28;;;;;;;7.10;2.28;;;;;;;23.73;52.53;100391.91;6341046;28;20529;-75
2023/09/02 06:49:34;;;;;;;3.60;1.87;;;;;;;23.59;52.47;100381.94;6338296;28;20043;-74
2023/09/02 06:52:35;;;;;;;3.05;2.20;;;;;;;23.90;52.69;100390.88;6344796;28;20082;-76
2023/09/02 06:55:36;;;;;;;3.10;2.13;;;;;;;23.90;52.14;100390.03;6345138;28;20506;-73
2023/09/02 06:58:39;;;;;;;2.42;1.90;;;;;;;24.11;51.28;100405.44;6344980;28;20082;-73
2023/09/02 07:01:40;;;;;;;2.92;1.92;;;;;;;24.41;50.98;100408.31;6344588;28;20163;-74
2023/09/02 07:04:43;;;;;;;8.03;2.20;;;;;;;24.19;51.86;100404.59;6346134;28;20502;-73
2023/09/02 07:07:44;;;;;;;3.63;2.25;;;;;;;24.68;51.65;100404.34;6346054;28;20051;-73
2023/09/02 07:10:45;;;;;;;2.43;1.90;;;;;;;24.86;51.17;100415.56;6344940;28;20427;-74
2023/09/02 07:13:46;;;;;;;4.03;2.07;;;;;;;24.89;50.92;100409.03;6343815;28;20040;-74
2023/09/02 07:16:46;;;;;;;4.90;2.10;;;;;;;24.70;50.20;100419.16;6342575;28;20051;-75
2023/09/02 07:19:50;;;;;;;2.83;2.13;;;;;;;24.97;49.79;100416.97;6345323;28;20138;-74
2023/09/02 07:22:50;;;;;;;2.95;2.05;;;;;;;25.15;50.55;100419.34;6344786;28;20122;-75
2023/09/02 07:25:53;;;;;;;2.83;1.97;;;;;;;25.50;48.95;100425.88;6339604;28;20553;-74
2023/09/02 07:28:54;;;;;;;3.03;2.20;;;;;;;25.49;48.18;100426.91;6337582;28;20146;-74
2023/09/02 07:31:58;;;;;;;2.33;1.92;;;;;;;25.69;49.75;100427.19;6343503;28;20104;-74
2023/09/02 07:34:58;;;;;;;2.53;2.00;;;;;;;26.02;48.15;100423.34;6343898;28;20100;-74
2023/09/02 07:37:59;;;;;;;2.67;1.87;;;;;;;26.05;46.44;100428.34;6350040;28;20146;-75
2023/09/02 07:41:00;;;;;;;3.50;2.10;;;;;;;26.27;47.48;100432.72;6350259;28;20138;-74
2023/09/02 07:44:01;;;;;;;4.68;2.00;;;;;;;26.10;46.81;100432.09;6350226;28;20040;-75
2023/09/02 07:47:02;;;;;;;2.10;1.60;;;;;;;26.63;44.54;100421.22;6348727;28;20043;-74
2023/09/02 07:50:02;;;;;;;5.10;1.80;;;;;;;26.52;45.88;100440.41;6348947;28;20043;-75
2023/09/02 07:53:03;;;;;;;2.63;2.03;;;;;;;26.61;45.85;100439.31;6348673;28;20044;-74
2023/09/02 07:56:06;;;;;;;2.27;1.60;;;;;;;26.78;44.29;100431.06;6348479;28;20040;-74
2023/09/02 07:59:07;;;;;;;1.60;1.50;;;;;;;26.71;44.79;100433.66;6348524;28;20062;-75
2023/09/02 08:02:08;;;;;;;2.80;2.17;;;;;;;27.06;43.36;100439.16;6349579;28;20056;-74
2023/09/02 08:05:09;;;;;;;2.90;2.00;;;;;;;27.13;44.18;100440.84;6349677;28;20051;-73
2023/09/02 08:08:10;;;;;;;5.20;1.90;;;;;;;27.48;44.29;100429.41;6349718;28;20275;-74
2023/09/02 08:11:12;;;;;;;4.33;1.70;;;;;;;27.60;44.43;100435.91;6348908;28;20093;-74
2023/09/02 08:14:15;;;;;;;1.98;1.55;;;;;;;27.63;42.67;100445.38;6349322;28;20477;-74
2023/09/02 08:17:19;;;;;;;2.33;1.83;;;;;;;28.07;43.73;100447.75;6349259;28;20047;-74
2023/09/02 08:20:22;;;;;;;4.85;1.88;;;;;;;28.31;42.10;100440.19;6348994;28;20472;-74
2023/09/02 08:23:23;;;;;;;3.45;1.80;;;;;;;28.43;42.07;100449.34;6349357;28;20108;-73
2023/09/02 08:26:23;;;;;;;4.50;2.00;;;;;;;28.24;42.37;100448.22;6347805;28;20051;-74
2023/09/02 08:29:28;;;;;;;2.03;1.50;;;;;;;28.39;41.49;100453.44;6349132;28;20047;-74
2023/09/02 08:32:30;;;;;;;2.13;1.55;;;;;;;28.58;41.15;100451.91;6347692;28;20051;-73
2023/09/02 08:35:37;;;;;;;1.80;1.42;;;;;;;28.41;39.16;100455.94;6347676;28;20043;-74
2023/09/02 08:38:38;;;;;;;1.98;1.42;;;;;;;28.53;40.07;100455.19;6348759;28;20387;-74
2023/09/02 08:41:40;;;;;;;1.63;1.40;;;;;;;28.58;40.17;100453.75;6347200;28;20112;-73
2023/09/02 08:44:41;;;;;;;5.95;1.80;;;;;;;28.70;40.15;100450.28;6348684;28;20276;-74
2023/09/02 08:47:48;;;;;;;2.35;1.55;;;;;;;28.95;38.74;100449.69;6347608;28;20059;-74
2023/09/02 08:50:51;;;;;;;1.85;1.25;;;;;;;29.46;38.28;100454.47;6347201;28;20407;-74
2023/09/02 08:53:56;;;;;;;1.60;1.23;;;;;;;29.67;37.71;100452.59;6348488;28;20058;-74
2023/09/02 08:56:58;;;;;;;1.60;1.17;;;;;;;29.97;37.66;100447.59;6347381;28;20048;-74
2023/09/02 08:59:59;;;;;;;1.38;1.27;;;;;;;29.62;36.84;100444.34;6346988;28;20043;-74
2023/09/02 09:03:02;;;;;;;4.40;1.30;;;;;;;29.56;37.58;100450.56;6347932;28;20047;-73
2023/09/02 09:06:08;;;;;;;2.70;1.20;;;;;;;29.43;36.63;100443.34;6348066;28;20513;-73
2023/09/02 09:09:10;;;;;;;1.67;1.25;;;;;;;29.44;36.27;100439.59;6346895;28;20052;-74
2023/09/02 09:12:12;;;;;;;1.27;1.17;;;;;;;29.77;37.47;100442.28;6347801;28;20087;-73
2023/09/02 09:15:16;;;;;;;2.00;1.40;;;;;;;29.85;36.07;100438.53;6346776;28;20054;-74
2023/09/02 09:18:20;;;;;;;3.63;1.25;;;;;;;30.40;36.35;100440.84;6346535;28;20043;-74
2023/09/02 09:21:21;;;;;;;6.03;1.42;;;;;;;30.10;35.50;100438.66;6346657;28;20043;-73
2023/09/02 09:24:21;;;;;;;1.70;1.43;;;;;;;30.38;36.01;100438.38;6346435;28;20176;-73
2023/09/02 09:27:25;;;;;;;1.77;1.40;;;;;;;30.86;34.64;100443.25;6347806;28;20283;-74
2023/09/02 09:30:30;;;;;;;1.55;1.20;;;;;;;30.70;35.45;100430.31;6347633;28;20055;-74
2023/09/02 09:33:30;;;;;;;2.88;1.33;;;;;;;30.72;35.08;100437.16;6346218;28;20055;-75
2023/09/02 09:36:31;;;;;;;4.00;1.50;;;;;;;30.32;35.80;100436.53;6346238;28;20052;-74
2023/09/02 09:39:42;;;;;;;3.00;1.30;;;;;;;30.64;34.16;100434.72;6346024;28;20451;-74
2023/09/02 09:42:43;;;;;;;2.13;1.10;;;;;;;30.71;35.00;100440.88;6347260;28;20043;-74
2023/09/02 09:45:51;;;;;;;4.47;1.30;;;;;;;30.56;35.81;100440.34;6345889;28;20097;-74
2023/09/02 09:49:00;;;;;;;1.58;1.10;;;;;;;31.27;35.26;100441.09;6345947;28;20083;-74
2023/09/02 09:52:01;;;;;;;2.03;1.40;;;;;;;31.54;35.02;100441.72;6335109;28;20080;-75
2023/09/02 09:55:04;;;;;;;2.60;1.33;;;;;;;31.58;33.81;100434.00;6335702;28;20143;-75
2023/09/02 09:58:05;;;;;;;4.03;1.80;;;;;;;31.38;34.17;100434.16;6334623;28;20062;-74
2023/09/02 10:01:08;;;;;;;3.10;1.42;;;;;;;31.43;33.77;100440.56;6329244;28;20043;-75
2023/09/02 10:04:12;;;;;;;2.95;1.20;;;;;;;31.28;33.26;100435.50;6342190;28;20376;-74
2023/09/02 10:07:19;;;;;;;1.30;1.20;;;;;;;31.81;34.14;100442.25;6344954;28;20470;-74
2023/09/02 10:10:27;;;;;;;1.40;1.27;;;;;;;31.72;33.34;100439.03;6338617;28;20055;-74
2023/09/02 10:13:28;;;;;;;2.33;1.17;;;;;;;31.85;35.00;100437.25;6345684;28;20058;-75
2023/09/02 10:16:30;;;;;;;1.55;1.08;;;;;;;31.91;33.99;100437.16;6346589;28;20056;-74
2023/09/02 10:19:33;;;;;;;1.00;0.93;;;;;;;31.37;35.07;100427.97;6346774;28;20055;-74
2023/09/02 10:22:37;;;;;;;1.52;1.23;;;;;;;31.72;32.78;100436.34;6345352;28;20059;-74
2023/09/02 10:26:05;;;;;;;1.02;0.93;;;;;;;32.60;34.98;100444.28;6346691;28;20043;-75
2023/09/02 10:29:12;;;;;;;1.50;1.25;;;;;;;32.52;32.29;100432.69;6345314;28;20047;-74
2023/09/02 10:32:15;;;;;;;2.58;1.20;;;;;;;32.45;32.20;100436.53;6346540;28;20058;-75
2023/09/02 10:35:22;;;;;;;1.95;1.15;;;;;;;32.81;31.54;100438.34;6338260;28;20055;-74
2023/09/02 10:38:24;;;;;;;1.13;0.93;;;;;;;32.57;30.83;100434.72;6333334;28;20551;-75
2023/09/02 10:41:26;;;;;;;1.48;1.10;;;;;;;32.55;30.56;100431.44;6336024;28;20054;-74
2023/09/02 10:44:28;;;;;;;2.30;1.23;;;;;;;32.01;31.78;100433.16;6331002;28;20047;-74
2023/09/02 10:47:28;;;;;;;1.65;1.30;;;;;;;32.23;32.65;100434.34;6331559;28;20047;-75
2023/09/02 10:50:33;;;;;;;2.80;1.13;;;;;;;32.46;31.67;100430.09;6337196;28;20047;-75
2023/09/02 10:53:55;;;;;;;5.75;0.98;;;;;;;32.55;30.68;100430.63;6335107;28;20126;-74
2023/09/02 10:57:12;;;;;;;1.77;1.10;;;;;;;32.34;30.37;100427.34;6339543;28;20048;-74
2023/09/02 11:00:13;;;;;;;1.77;1.08;;;;;;;32.04;31.68;100435.41;6338657;28;20067;-74
2023/09/02 11:03:46;;;;;;;5.95;1.55;;;;;;;32.82;31.69;100436.44;6342841;28;20444;-74
2023/09/02 11:07:18;;;;;;;2.05;1.20;;;;;;;33.02;31.18;100430.75;6345869;28;20042;-74
2023/09/02 11:10:20;;;;;;;1.38;1.05;;;;;;;33.24;28.90;100421.03;6346057;28;20511;-74
2023/09/02 11:13:21;;;;;;;1.17;1.02;;;;;;;33.62;30.32;100427.03;6350653;28;20054;-75
2023/09/02 11:16:21;;;;;;;1.52;1.00;;;;;;;33.86;31.27;100431.38;6350952;28;20047;-75
2023/09/02 11:19:58;;;;;;;1.42;0.93;;;;;;;33.55;29.00;100424.44;6349727;28;20051;-74
2023/09/02 11:23:08;;;;;;;1.85;1.05;;;;;;;33.53;31.84;100429.25;6349374;28;20055;-75
2023/09/02 11:26:13;;;;;;;1.48;1.20;;;;;;;32.88;30.00;100430.94;6350359;28;20044;-74
2023/09/02 11:29:22;;;;;;;4.22;1.02;;;;;;;33.02;30.40;100425.34;6349746;28;20054;-74
2023/09/02 11:32:22;;;;;;;6.10;1.20;;;;;;;33.46;32.63;100423.97;6349481;28;20051;-74
2023/09/02 11:35:30;;;;;;;17.48;2.08;;;;;;;33.50;29.44;100403.53;6349044;28;20043;-74
2023/09/02 11:38:32;;;;;;;4.28;1.48;;;;;;;33.89;29.23;100416.53;6349961;28;20097;-74
2023/09/02 11:41:36;;;;;;;3.38;1.00;;;;;;;33.36;31.03;100412.94;6348982;28;20728;-74
2023/09/02 11:44:37;;;;;;;1.90;1.00;;;;;;;33.59;29.70;100411.28;6348671;28;20101;-74
2023/09/02 11:47:38;;;;;;;1.50;1.10;;;;;;;33.87;29.19;100418.66;6348476;28;20055;-75
2023/09/02 11:50:41;;;;;;;4.32;1.20;;;;;;;34.22;28.77;100413.16;6349102;28;20040;-74
2023/09/02 11:53:43;;;;;;;1.27;0.90;;;;;;;33.67;28.51;100409.06;6349541;28;20083;-75
2023/09/02 11:56:55;;;;;;;1.10;1.00;;;;;;;34.01;28.62;100400.25;6347974;28;20124;-74
2023/09/02 11:59:58;;;;;;;0.80;0.80;;;;;;;33.24;28.71;100399.41;6343286;28;20051;-74
2023/09/02 12:03:03;;;;;;;1.33;0.95;;;;;;;33.77;27.71;100402.19;6343535;28;20061;-75
2023/09/02 12:06:04;;;;;;;2.17;1.25;;;;;;;33.61;28.15;100390.25;6345880;28;20126;-75
2023/09/02 12:09:06;;;;;;;1.20;1.10;;;;;;;33.87;29.44;100399.69;6349088;28;20051;-75
2023/09/02 12:12:10;;;;;;;2.38;1.45;;;;;;;33.96;28.70;100392.06;6349249;28;20495;-75
2023/09/02 12:15:17;;;;;;;3.80;1.48;;;;;;;34.05;29.69;100401.41;6345905;28;20040;-74
2023/09/02 12:18:22;;;;;;;1.60;1.05;;;;;;;34.38;28.97;100386.38;6348317;28;20082;-75
2023/09/02 12:21:23;;;;;;;2.30;0.90;;;;;;;33.71;30.45;100374.22;6348963;28;20060;-75
2023/09/02 12:24:23;;;;;;;1.73;1.45;;;;;;;33.77;28.83;100388.66;6347989;28;20101;-75
2023/09/02 12:27:24;;;;;;;;;;;;;;;33.63;28.42;100385.41;6347349;28;20051;-74
2023/09/02 12:30:35;;;;;;;1.00;0.70;;;;;;;33.72;28.66;100384.78;6347950;28;19980;-74
2023/09/02 12:33:36;;;;;;;1.92;1.13;;;;;;;33.47;28.52;100379.63;6346982;28;20055;-75
2023/09/02 12:36:39;;;;;;;2.38;1.00;;;;;;;33.33;28.25;100372.84;6345519;28;20052;-74
2023/09/02 12:39:40;;;;;;;1.30;0.93;;;;;;;33.29;29.52;100377.06;6333565;28;20612;-75
2023/09/02 12:42:41;;;;;;;2.10;0.90;;;;;;;33.59;28.62;100373.41;6347629;28;20086;-74
2023/09/02 12:45:44;;;;;;;2.35;1.00;;;;;;;33.68;28.01;100372.81;6347067;28;20383;-74
2023/09/02 12:48:46;;;;;;;1.25;1.05;;;;;;;33.19;28.72;100368.72;6357128;27;20054;-73
2023/09/02 12:51:49;;;;;;;17.48;1.23;;;;;;;33.08;28.16;100364.97;6347312;28;20043;-74
2023/09/02 12:54:57;;;;;;;1.15;1.00;;;;;;;33.47;28.65;100360.72;6347586;28;20051;-75
2023/09/02 12:57:57;;;;;;;0.93;0.80;;;;;;;33.86;29.51;100358.28;6347145;28;20051;-74
2023/09/02 13:01:04;;;;;;;1.55;0.90;;;;;;;33.41;29.70;100352.72;6348296;28;20071;-75
2023/09/02 13:04:07;;;;;;;2.20;1.17;;;;;;;33.14;28.68;100364.03;6322749;28;20048;-74
2023/09/02 13:07:09;;;;;;;1.40;1.00;;;;;;;33.19;27.96;100361.44;6322795;28;20048;-74
2023/09/02 13:10:11;;;;;;;1.00;0.90;;;;;;;33.41;28.48;100358.13;6321795;28;20101;-74
2023/09/02 13:13:16;;;;;;;1.48;0.90;;;;;;;33.58;29.42;100356.31;6338617;28;20055;-74
2023/09/02 13:16:16;;;;;;;1.80;1.00;;;;;;;33.41;29.94;100356.25;6322399;28;20044;-74
2023/09/02 13:19:17;;;;;;;1.10;1.00;;;;;;;33.40;27.92;100351.91;6321527;28;20077;-75
2023/09/02 13:22:18;;;;;;;1.33;1.02;;;;;;;33.75;30.19;100353.75;6338088;28;20048;-74
2023/09/02 13:25:19;;;;;;;1.15;0.88;;;;;;;33.62;28.83;100349.41;6320935;28;20415;-75
2023/09/02 13:28:20;;;;;;;6.82;1.10;;;;;;;33.41;27.93;100353.53;6319460;28;20406;-76
2023/09/02 13:31:22;;;;;;;0.93;0.85;;;;;;;33.47;29.62;100343.66;6319165;28;20059;-74
2023/09/02 13:34:36;;;;;;;1.65;1.00;;;;;;;33.59;29.54;100344.47;6312680;28;20161;-75
2023/09/02 13:37:37;;;;;;;1.52;0.98;;;;;;;33.28;29.36;100340.28;6320745;28;20134;-75
2023/09/02 13:40:37;;;;;;;;;;;;;;;33.28;27.32;100335.69;6322536;28;20055;-72
2023/09/02 13:43:39;;;;;;;1.17;0.90;;;;;;;33.67;29.20;100327.88;6318117;28;19919;-75
2023/09/02 13:46:40;;;;;;;0.60;0.60;;;;;;;33.43;28.23;100318.16;6310105;28;20044;-75
2023/09/02 13:49:44;;;;;;;2.63;1.13;;;;;;;33.35;29.48;100313.94;6309125;28;20052;-75
2023/09/02 13:52:50;;;;;;;2.05;1.10;;;;;;;33.29;29.09;100323.00;6310165;28;20078;-75
2023/09/02 13:55:51;;;;;;;5.93;1.42;;;;;;;32.59;29.66;100321.88;6309179;28;20114;-74
2023/09/02 13:58:54;;;;;;;2.65;1.20;;;;;;;32.77;29.69;100310.19;6307340;28;20135;-74
2023/09/02 14:01:55;;;;;;;2.05;1.05;;;;;;;32.88;30.28;100317.44;6313462;28;20051;-74
2023/09/02 14:04:58;;;;;;;3.50;0.90;;;;;;;32.64;29.79;100319.34;6332349;28;20055;-73
2023/09/02 14:08:00;;;;;;;2.08;0.88;;;;;;;32.25;29.31;100310.75;6339560;28;20712;-75
2023/09/02 14:11:01;;;;;;;1.23;0.82;;;;;;;32.29;30.31;100313.84;6335093;28;20043;-74
2023/09/02 14:14:04;;;;;;;;;;;;;;;31.96;28.67;100316.94;6334823;28;20418;-74